createdAt,value
2019-04-04T00:09:49.101Z,97968.00
2019-04-04T00:20:32.742Z,97968.00
2019-04-04T00:31:18.729Z,97971.00
2019-04-04T00:41:59.920Z,97975.00
2019-04-04T00:52:42.348Z,97982.00
2019-04-04T01:03:29.760Z,97994.00
2019-04-04T01:14:11.794Z,97989.00
2019-04-04T01:24:54.937Z,97973.00
2019-04-04T01:35:37.600Z,97953.00
2019-04-04T01:46:21.192Z,97953.00
2019-04-04T01:57:07.818Z,97952.00
2019-04-04T02:07:48.178Z,97936.00
2019-04-04T02:18:32.820Z,97930.00
2019-04-04T02:29:15.766Z,97926.00
2019-04-04T02:39:58.897Z,97978.00
2019-04-04T02:50:40.603Z,97952.00
2019-04-04T03:01:23.868Z,97925.00
2019-04-04T03:12:08.822Z,97936.00
2019-04-04T03:22:53.334Z,97938.00
2019-04-04T03:33:37.977Z,97924.00
2019-04-04T03:44:21.893Z,97912.00
2019-04-04T03:54:59.731Z,97894.00
2019-04-04T04:05:41.670Z,97874.00
2019-04-04T04:16:24.945Z,97877.00
2019-04-04T04:27:14.413Z,97867.00
2019-04-04T04:37:52.258Z,97876.00
2019-04-04T04:48:32.110Z,97861.00
2019-04-04T04:59:15.193Z,97875.00
2019-04-04T05:09:59.073Z,97881.00
2019-04-04T05:20:40.876Z,97885.00
2019-04-04T05:31:21.018Z,97880.00
2019-04-04T05:42:05.240Z,97878.00
2019-04-04T05:52:41.857Z,97891.00
2019-04-04T06:03:24.475Z,97895.00
2019-04-04T06:14:08.808Z,97893.00
2019-04-04T06:24:47.144Z,97868.00
2019-04-04T06:35:29.516Z,97849.00
2019-04-04T06:46:14.079Z,97844.00
2019-04-04T06:56:59.260Z,97829.00
2019-04-04T07:07:43.875Z,97807.00
2019-04-04T07:18:25.584Z,97810.00
2019-04-04T07:29:12.984Z,97768.00
2019-04-04T07:39:57.333Z,97757.00
2019-04-04T07:50:41.513Z,97753.00
2019-04-04T08:01:23.843Z,97741.00
2019-04-04T08:12:07.086Z,97736.00
2019-04-04T08:22:51.801Z,97718.00
2019-04-04T08:33:35.848Z,97729.00
2019-04-04T08:44:18.245Z,97770.00
2019-04-04T08:55:02.156Z,97754.00
2019-04-04T09:05:46.068Z,97741.00
2019-04-04T09:16:30.269Z,97746.00
2019-04-04T09:27:14.725Z,97740.00
2019-04-04T09:37:55.480Z,97762.00
2019-04-04T09:48:40.860Z,97754.00
2019-04-04T09:59:26.878Z,97728.00
2019-04-04T10:10:05.734Z,97753.00
2019-04-04T10:20:45.279Z,97698.00
2019-04-04T10:31:29.365Z,97664.00
2019-04-04T10:42:02.718Z,97642.00
2019-04-04T10:52:44.855Z,97627.00
2019-04-04T11:03:26.856Z,97659.00
2019-04-04T11:14:07.934Z,97622.00
2019-04-04T11:24:46.555Z,97630.00
2019-04-04T11:35:26.429Z,97671.00
2019-04-04T11:46:05.277Z,97749.00
2019-04-04T11:56:46.406Z,97791.00
2019-04-04T12:07:26.376Z,97831.00
2019-04-04T12:18:03.961Z,97808.00
2019-04-04T12:28:43.058Z,97747.00
2019-04-04T12:39:17.975Z,97725.00
2019-04-04T12:49:57.641Z,97736.00
2019-04-04T13:00:39.949Z,97757.00
2019-04-04T13:11:17.101Z,97737.00
2019-04-04T13:21:58.057Z,97770.00
2019-04-04T13:32:36.157Z,97805.00
2019-04-04T13:43:16.152Z,97826.00
2019-04-04T13:53:57.951Z,97879.00
2019-04-04T14:04:35.408Z,97937.00
2019-04-04T14:15:16.102Z,97922.00
2019-04-04T14:25:51.529Z,97837.00
2019-04-04T14:36:32.737Z,97823.00
2019-04-04T14:47:08.812Z,97778.00
2019-04-04T14:57:50.074Z,97734.00
2019-04-04T15:08:27.288Z,97738.00
2019-04-04T15:19:10.950Z,97710.00
2019-04-04T15:29:52.794Z,97726.00
2019-04-04T15:40:35.523Z,97827.00
2019-04-04T15:51:19.622Z,97766.00
2019-04-04T16:02:05.617Z,97749.00
2019-04-04T16:12:48.628Z,97761.00
2019-04-04T16:23:32.351Z,97834.00
2019-04-04T16:34:17.280Z,97848.00
2019-04-04T16:45:02.445Z,97827.00
2019-04-04T16:55:43.776Z,97823.00
2019-04-04T17:06:25.253Z,97833.00
2019-04-04T17:17:05.414Z,97882.00
2019-04-04T17:27:45.106Z,97899.00
2019-04-04T17:38:18.636Z,97903.00
2019-04-04T17:48:50.927Z,97971.00
2019-04-04T17:59:25.781Z,98073.00
2019-04-04T18:10:09.717Z,98150.00
2019-04-04T18:20:52.005Z,98168.00
2019-04-04T18:31:35.688Z,98164.00
2019-04-04T18:42:15.848Z,98245.00
2019-04-04T18:52:58.338Z,98283.00
2019-04-04T19:03:42.740Z,98310.00
2019-04-04T19:14:26.874Z,98355.00
2019-04-04T19:25:10.042Z,98380.00
2019-04-04T19:35:48.975Z,98399.00
2019-04-04T19:46:37.253Z,98438.00
2019-04-04T19:57:16.811Z,98452.00
2019-04-04T20:07:54.228Z,98482.00
2019-04-04T20:18:35.527Z,98501.00
2019-04-04T20:29:18.058Z,98515.00
2019-04-04T20:40:01.603Z,98534.00
2019-04-04T20:50:44.799Z,98540.00
2019-04-04T21:01:30.323Z,98541.00
2019-04-04T21:12:11.823Z,98568.00
2019-04-04T21:22:45.387Z,98559.00
2019-04-04T21:33:20.605Z,98545.00
2019-04-04T21:44:08.093Z,98559.00
2019-04-04T21:54:36.727Z,98591.00
2019-04-04T22:05:17.423Z,98617.00
2019-04-04T22:15:57.473Z,98657.00
2019-04-04T22:26:34.917Z,98679.00
2019-04-04T22:37:16.149Z,98676.00
2019-04-04T22:47:59.142Z,98698.00
2019-04-04T22:58:42.413Z,98720.00
2019-04-04T23:09:25.854Z,98761.00
2019-04-04T23:20:09.778Z,98793.00
2019-04-04T23:30:52.583Z,98827.00
2019-04-04T23:41:36.413Z,98837.00
2019-04-04T23:52:19.118Z,98838.00
